Time;durP1;ratioP1;P1;durP2;ratioP2;P2;SDS_P1;SDS_P2;PMS_P1;PMS_P2;Temp;Humidity;BMP_temperature;BMP_pressure;BME280_temperature;BME280_humidity;BME280_pressure;Samples;Min_cycle;Max_cycle;Signal;HPM_P1;HPM_P2
2022/01/05 00:01:21;;;;;;;16.30;3.80;;;;;;;3.31;87.75;99694.00;5051096;28;20053;-66
2022/01/05 00:03:48;;;;;;;12.75;3.03;;;;;;;3.35;87.65;99698.03;5034300;28;20049;-66
2022/01/05 00:06:14;;;;;;;13.68;2.95;;;;;;;3.57;87.59;99693.53;5052069;28;20045;-66
2022/01/05 00:08:41;;;;;;;11.93;2.63;;;;;;;3.55;85.69;99704.16;5049654;28;20061;-66
2022/01/05 00:11:10;;;;;;;11.30;2.70;;;;;;;3.54;87.48;99707.72;5032673;28;20041;-66
2022/01/05 00:13:37;;;;;;;15.05;2.88;;;;;;;3.54;87.47;99701.66;5031004;28;20046;-66
2022/01/05 00:16:04;;;;;;;8.45;2.70;;;;;;;3.50;87.38;99705.53;5030924;28;20046;-65
2022/01/05 00:18:32;;;;;;;20.55;3.58;;;;;;;3.54;89.35;99705.09;5051051;28;20151;-66
2022/01/05 00:20:59;;;;;;;12.75;2.88;;;;;;;3.53;87.32;99713.94;5051417;28;20041;-66
2022/01/05 00:23:27;;;;;;;17.02;3.08;;;;;;;3.68;86.20;99713.56;5052208;28;20123;-66
2022/01/05 00:25:54;;;;;;;12.93;3.38;;;;;;;3.43;87.36;99716.53;5083967;28;20041;-65
2022/01/05 00:28:21;;;;;;;14.18;3.97;;;;;;;3.36;87.40;99712.78;5051328;28;20071;-66
2022/01/05 00:30:48;;;;;;;11.82;3.90;;;;;;;3.28;87.76;99717.88;5082427;28;20053;-66
2022/01/05 00:33:15;;;;;;;15.00;4.30;;;;;;;3.29;87.81;99716.88;5052093;28;20044;-66
2022/01/05 00:35:42;;;;;;;14.65;4.22;;;;;;;3.22;88.36;99716.59;5050820;28;20037;-66
2022/01/05 00:38:09;;;;;;;11.82;4.53;;;;;;;3.24;87.70;99721.72;5050872;28;20069;-65
2022/01/05 00:40:35;;;;;;;14.65;4.10;;;;;;;3.17;87.56;99718.78;5052129;28;20052;-66
2022/01/05 00:43:02;;;;;;;12.50;4.25;;;;;;;3.21;88.68;99716.72;5034272;28;20557;-66
2022/01/05 00:45:29;;;;;;;11.60;3.30;;;;;;;3.14;87.69;99719.03;5033571;28;20457;-66
2022/01/05 00:47:56;;;;;;;14.65;3.95;;;;;;;3.02;89.12;99723.53;5052697;28;20517;-66
2022/01/05 00:50:23;;;;;;;13.85;4.07;;;;;;;2.94;88.27;99720.72;5054761;28;20045;-66
2022/01/05 00:52:50;;;;;;;17.38;3.70;;;;;;;2.99;88.99;99718.56;5054747;28;20585;-65
2022/01/05 00:55:16;;;;;;;12.90;3.65;;;;;;;3.12;88.00;99709.66;5038064;28;20048;-66
2022/01/05 00:57:43;;;;;;;12.57;3.30;;;;;;;3.13;88.33;99713.91;5055233;28;20049;-66
2022/01/05 01:00:10;;;;;;;13.63;3.20;;;;;;;3.06;87.96;99724.13;5054220;28;20055;-66
2022/01/05 01:02:37;;;;;;;12.55;3.88;;;;;;;3.04;88.16;99726.03;5053686;28;20057;-66
2022/01/05 01:05:04;;;;;;;15.90;3.95;;;;;;;3.05;88.28;99731.13;5015787;28;20494;-66
2022/01/05 01:07:31;;;;;;;19.33;3.55;;;;;;;2.90;89.36;99742.09;5055306;28;20064;-66
2022/01/05 01:09:58;;;;;;;14.27;3.35;;;;;;;3.04;89.57;99741.75;5037698;28;20498;-66
2022/01/05 01:12:26;;;;;;;11.80;3.15;;;;;;;3.03;89.08;99743.53;5054978;28;20036;-66
2022/01/05 01:14:53;;;;;;;14.00;3.60;;;;;;;3.24;88.47;99740.88;5087782;28;20053;-66
2022/01/05 01:17:22;;;;;;;10.02;3.65;;;;;;;3.19;89.26;99739.63;5054132;28;20049;-66
2022/01/05 01:19:48;;;;;;;17.75;3.80;;;;;;;3.36;88.23;99739.00;5054421;28;20511;-66
2022/01/05 01:22:15;;;;;;;13.50;4.00;;;;;;;3.23;88.91;99743.63;5054042;28;20037;-66
2022/01/05 01:24:42;;;;;;;13.77;3.97;;;;;;;3.33;88.24;99746.28;5087716;28;20049;-66
2022/01/05 01:27:09;;;;;;;10.48;3.55;;;;;;;3.28;87.68;99738.84;5054782;28;20048;-66
2022/01/05 01:29:35;;;;;;;14.00;3.70;;;;;;;3.19;88.34;99750.09;5055413;28;20045;-66
2022/01/05 01:32:04;;;;;;;16.40;4.10;;;;;;;3.17;88.80;99746.78;5053530;28;20140;-65
2022/01/05 01:34:31;;;;;;;14.45;4.85;;;;;;;2.87;89.67;99748.41;5054564;28;20397;-66
2022/01/05 01:36:58;;;;;;;16.20;5.53;;;;;;;2.82;89.10;99754.03;5055010;28;20041;-65
2022/01/05 01:39:24;;;;;;;16.77;5.45;;;;;;;2.82;90.52;99756.66;5054044;28;20049;-66
2022/01/05 01:41:51;;;;;;;16.83;5.68;;;;;;;2.88;89.51;99750.06;5086918;28;20394;-66
2022/01/05 01:44:18;;;;;;;13.60;5.95;;;;;;;2.86;89.83;99752.00;5054989;28;20405;-66
2022/01/05 01:46:44;;;;;;;16.52;7.03;;;;;;;2.80;89.36;99750.72;5053404;28;20043;-66
2022/01/05 01:49:11;;;;;;;14.20;5.95;;;;;;;2.82;89.97;99758.44;5037061;28;20469;-66
2022/01/05 01:51:38;;;;;;;19.02;6.93;;;;;;;2.83;89.98;99754.88;5054624;28;20056;-66
2022/01/05 01:54:07;;;;;;;20.13;7.22;;;;;;;2.76;89.92;99759.78;5054307;28;20044;-66
2022/01/05 01:56:35;;;;;;;23.52;8.32;;;;;;;2.74;90.51;99761.69;5053088;28;20041;-66
2022/01/05 01:59:02;;;;;;;21.77;8.20;;;;;;;2.77;90.34;99771.09;5053087;28;20048;-66
2022/01/05 02:01:29;;;;;;;17.83;8.00;;;;;;;2.68;90.56;99768.28;5052790;28;20044;-66
2022/01/05 02:03:56;;;;;;;22.45;7.55;;;;;;;2.82;90.30;99769.75;5051262;28;20059;-66
2022/01/05 02:06:23;;;;;;;19.05;6.60;;;;;;;2.78;89.33;99767.50;5054073;28;20045;-66
2022/01/05 02:08:50;;;;;;;21.83;8.60;;;;;;;2.62;90.17;99770.56;5053040;28;20044;-66
2022/01/05 02:11:17;;;;;;;18.75;7.20;;;;;;;2.66;89.36;99775.44;5053461;28;20383;-66
2022/01/05 02:13:47;;;;;;;12.77;5.95;;;;;;;2.58;90.22;99769.97;5054053;28;20053;-66
2022/01/05 02:16:20;;;;;;;21.15;6.82;;;;;;;2.54;89.98;99771.19;5053719;28;20069;-66
2022/01/05 02:19:02;;;;;;;19.73;6.95;;;;;;;2.52;90.23;99775.72;5054329;28;20044;-65
2022/01/05 02:21:31;;;;;;;;;;;;;;;2.53;89.88;99774.78;5053552;28;20569;-65
2022/01/05 02:23:58;;;;;;;19.45;7.32;;;;;;;2.49;89.59;99774.22;5036453;28;19943;-65
2022/01/05 02:26:25;;;;;;;22.17;7.60;;;;;;;2.49;90.34;99776.81;5053853;28;20047;-66
2022/01/05 02:28:52;;;;;;;21.73;7.00;;;;;;;2.38;90.34;99787.31;5052979;28;20052;-65
2022/01/05 02:31:19;;;;;;;19.63;6.80;;;;;;;2.45;89.88;99783.25;5086454;28;20047;-66
2022/01/05 02:33:46;;;;;;;18.17;7.15;;;;;;;2.35;89.81;99784.97;5069009;28;20037;-66
2022/01/05 02:36:17;;;;;;;25.92;8.85;;;;;;;2.35;89.82;99789.34;5052663;28;20414;-65
2022/01/05 02:38:46;;;;;;;18.77;7.03;;;;;;;2.29;89.77;99794.16;5052959;28;20045;-66
2022/01/05 02:41:13;;;;;;;25.05;8.60;;;;;;;2.29;90.15;99799.38;5068414;28;20056;-66
2022/01/05 02:43:41;;;;;;;22.98;8.60;;;;;;;2.31;90.07;99796.66;5052283;28;20428;-65
2022/01/05 02:46:11;;;;;;;19.73;7.72;;;;;;;2.35;89.83;99805.06;5050007;28;20099;-66
2022/01/05 02:48:39;;;;;;;21.77;9.07;;;;;;;2.34;89.58;99806.03;5054024;28;20041;-66
2022/01/05 02:51:06;;;;;;;19.63;8.65;;;;;;;2.34;89.94;99811.25;5086045;28;20037;-65
2022/01/05 02:53:34;;;;;;;20.73;8.75;;;;;;;2.28;89.10;99815.22;5069018;28;20041;-65
2022/01/05 02:56:01;;;;;;;23.85;7.68;;;;;;;2.25;89.33;99815.44;5053362;28;20067;-66
2022/01/05 02:58:28;;;;;;;21.35;8.32;;;;;;;2.27;88.94;99816.16;5053223;28;20601;-66
2022/01/05 03:00:54;;;;;;;22.92;8.27;;;;;;;2.35;89.16;99810.28;5068242;28;20075;-66
2022/01/05 03:03:22;;;;;;;24.08;8.45;;;;;;;2.35;88.32;99816.38;5053323;28;20041;-65
2022/01/05 03:05:49;;;;;;;23.45;7.95;;;;;;;2.26;88.50;99817.94;5051814;28;20040;-66
2022/01/05 03:08:16;;;;;;;21.85;6.95;;;;;;;2.25;88.46;99829.34;5073074;28;20040;-66
2022/01/05 03:10:43;;;;;;;23.05;6.60;;;;;;;2.17;88.07;99834.38;5069325;28;20044;-66
2022/01/05 03:13:10;;;;;;;15.18;6.40;;;;;;;2.14;87.65;99837.25;5072734;28;20036;-66
2022/01/05 03:15:38;;;;;;;28.95;7.30;;;;;;;2.17;88.02;99847.47;5072755;28;20053;-65
2022/01/05 03:18:06;;;;;;;17.50;5.30;;;;;;;2.08;87.32;99859.50;5071539;28;20127;-65
2022/01/05 03:20:34;;;;;;;17.90;5.43;;;;;;;2.08;87.99;99856.88;5085568;28;20094;-66
2022/01/05 03:23:03;;;;;;;25.23;6.22;;;;;;;1.98;87.46;99853.31;5053119;28;20532;-65
2022/01/05 03:25:31;;;;;;;16.48;5.38;;;;;;;2.15;87.63;99867.69;5085161;28;20037;-65
2022/01/05 03:27:58;;;;;;;18.40;5.07;;;;;;;1.95;87.75;99860.56;5052618;28;20047;-65
2022/01/05 03:30:28;;;;;;;19.13;5.43;;;;;;;1.98;87.46;99861.16;5052909;28;20049;-66
2022/01/05 03:35:34;;;;;;;21.10;6.15;;;;;;;2.03;87.54;99868.66;5051253;28;20048;-65
2022/01/05 03:38:02;;;;;;;23.35;4.93;;;;;;;2.00;87.24;99869.75;5053139;28;20045;-66
2022/01/05 03:40:30;;;;;;;18.25;4.93;;;;;;;1.89;87.67;99861.88;5052548;28;20428;-65
2022/01/05 03:42:57;;;;;;;22.42;5.50;;;;;;;1.96;86.94;99877.94;5070668;28;20532;-65
2022/01/05 03:45:24;;;;;;;20.67;3.65;;;;;;;1.89;86.87;99888.88;5055897;28;20053;-65
2022/01/05 03:47:50;;;;;;;15.57;4.60;;;;;;;1.91;86.62;99879.13;5053518;28;20076;-65
2022/01/05 03:50:17;;;;;;;17.73;4.45;;;;;;;1.92;86.64;99887.81;5052791;28;20048;-65
2022/01/05 03:52:44;;;;;;;21.15;3.85;;;;;;;1.87;86.20;99898.63;5052576;28;20120;-65
2022/01/05 03:55:11;;;;;;;10.57;3.50;;;;;;;1.80;85.78;99905.28;5051243;28;20394;-66
2022/01/05 03:57:37;;;;;;;20.02;4.45;;;;;;;1.76;85.48;99906.47;5052370;28;20408;-65
2022/01/05 04:00:05;;;;;;;17.70;4.07;;;;;;;1.74;85.70;99913.59;5084952;28;20091;-65
2022/01/05 04:02:48;;;;;;;12.73;3.75;;;;;;;1.72;85.77;99918.94;5110356;27;1224080;-65
2022/01/05 04:05:15;;;;;;;12.20;2.95;;;;;;;1.70;85.32;99918.22;5111060;28;20044;-65
2022/01/05 04:07:42;;;;;;;15.70;3.70;;;;;;;1.72;85.73;99916.31;5112373;28;20051;-65
2022/01/05 04:10:08;;;;;;;18.80;3.97;;;;;;;1.69;85.56;99927.03;5112808;28;20043;-66
2022/01/05 04:12:35;;;;;;;19.42;3.83;;;;;;;1.72;85.52;99937.25;5112690;28;20032;-65
2022/01/05 04:15:03;;;;;;;13.05;3.58;;;;;;;1.68;85.49;99930.59;5095565;28;20035;-65
2022/01/05 04:17:31;;;;;;;17.90;3.67;;;;;;;1.80;84.92;99943.66;5112598;28;20654;-66
2022/01/05 04:19:58;;;;;;;25.20;3.85;;;;;;;1.76;84.61;99937.00;5112495;28;20050;-65
2022/01/05 04:22:24;;;;;;;18.60;4.15;;;;;;;1.64;85.34;99944.03;5112528;28;20040;-65
2022/01/05 04:24:51;;;;;;;14.98;3.50;;;;;;;1.65;85.25;99951.72;5130569;28;20126;-65
2022/01/05 04:27:19;;;;;;;12.95;3.42;;;;;;;1.70;84.95;99948.78;5130428;28;20446;-65
2022/01/05 04:29:45;;;;;;;9.52;2.88;;;;;;;1.65;84.47;99958.75;5130549;28;20043;-65
2022/01/05 04:32:12;;;;;;;18.05;3.00;;;;;;;1.56;85.02;99957.66;5128919;28;20040;-65
2022/01/05 04:34:39;;;;;;;7.63;2.33;;;;;;;1.59;84.55;99964.44;5112085;28;20051;-65
2022/01/05 04:37:26;;;;;;;23.17;3.20;;;;;;;1.61;84.12;99966.00;5115025;28;20036;-64
2022/01/05 04:39:53;;;;;;;14.55;3.42;;;;;;;1.58;84.68;99968.81;5130246;28;20047;-64
2022/01/05 04:42:20;;;;;;;21.67;3.38;;;;;;;1.54;83.96;99965.59;5112021;28;20531;-64
2022/01/05 04:44:46;;;;;;;10.02;2.90;;;;;;;1.48;83.72;99973.91;5112062;28;20051;-64
2022/01/05 04:47:13;;;;;;;18.20;3.45;;;;;;;1.53;84.11;99966.56;5129805;28;20051;-64
2022/01/05 04:49:40;;;;;;;9.25;3.45;;;;;;;1.40;83.70;99971.06;5095189;28;20039;-64
2022/01/05 04:52:07;;;;;;;22.08;3.50;;;;;;;1.40;83.71;99970.19;5130145;28;20038;-64
2022/01/05 04:54:34;;;;;;;15.90;3.45;;;;;;;1.44;83.99;99969.88;5111771;28;20043;-64
2022/01/05 04:57:01;;;;;;;15.85;3.15;;;;;;;1.52;83.85;99977.97;5111882;28;20043;-64
2022/01/05 04:59:27;;;;;;;15.88;3.08;;;;;;;1.51;83.55;99972.84;5094868;28;20039;-65
2022/01/05 05:01:54;;;;;;;20.25;3.05;;;;;;;1.51;83.27;99967.63;5129537;28;20138;-65
2022/01/05 05:04:21;;;;;;;17.05;3.53;;;;;;;1.53;83.61;99973.59;5110006;28;20043;-65
2022/01/05 05:06:49;;;;;;;19.60;3.58;;;;;;;1.48;83.41;99970.47;5125970;28;20059;-65
2022/01/05 05:09:17;;;;;;;27.67;4.53;;;;;;;1.57;82.98;99979.41;5111634;28;20097;-65
2022/01/05 05:11:44;;;;;;;10.73;2.90;;;;;;;1.46;83.32;99982.84;5111293;28;20039;-65
2022/01/05 05:14:11;;;;;;;25.27;3.78;;;;;;;1.42;83.69;99978.75;5115317;28;20039;-64
2022/01/05 05:16:38;;;;;;;19.23;4.00;;;;;;;1.53;83.59;99981.44;5102693;28;20094;-64
2022/01/05 05:19:07;;;;;;;21.42;4.07;;;;;;;1.44;84.24;99987.34;5095666;28;20071;-64
2022/01/05 05:21:34;;;;;;;18.02;4.07;;;;;;;1.45;82.88;99984.59;5061087;28;20043;-64
2022/01/05 05:24:01;;;;;;;18.35;4.82;;;;;;;1.34;83.51;99992.41;5077394;28;20055;-64
2022/01/05 05:26:27;;;;;;;21.15;4.43;;;;;;;1.42;83.50;99990.06;5077208;28;20067;-64
2022/01/05 05:28:54;;;;;;;15.68;3.30;;;;;;;1.36;83.34;99981.84;5095054;28;20056;-65
2022/01/05 05:31:21;;;;;;;23.05;4.45;;;;;;;1.49;83.00;99990.44;5075863;28;20055;-65
2022/01/05 05:33:47;;;;;;;15.55;3.85;;;;;;;1.56;83.24;99991.63;5095229;28;20044;-64
2022/01/05 05:36:14;;;;;;;13.88;3.22;;;;;;;1.63;82.07;99986.78;5077036;28;20055;-65
2022/01/05 05:38:41;;;;;;;16.52;3.50;;;;;;;1.64;81.84;99985.84;5077469;28;20435;-65
2022/01/05 05:41:08;;;;;;;17.23;3.35;;;;;;;1.60;82.02;99997.47;5076813;28;20040;-65
2022/01/05 05:43:34;;;;;;;19.15;3.72;;;;;;;1.48;82.61;99989.59;5095194;28;20048;-65
2022/01/05 05:46:02;;;;;;;21.88;3.90;;;;;;;1.67;81.76;99994.31;5093551;28;20040;-65
2022/01/05 05:48:29;;;;;;;17.33;3.88;;;;;;;1.61;82.21;99991.31;5115496;28;20044;-65
2022/01/05 05:50:55;;;;;;;18.50;3.58;;;;;;;1.68;81.52;99995.13;5063903;28;20118;-65
2022/01/05 05:53:23;;;;;;;19.85;3.72;;;;;;;1.58;81.96;99996.75;5080842;28;20044;-64
2022/01/05 05:55:49;;;;;;;20.95;3.53;;;;;;;1.57;82.04;100005.56;5117668;28;20079;-65
2022/01/05 05:58:16;;;;;;;16.05;3.75;;;;;;;1.65;83.63;100008.44;5115515;28;20111;-64
2022/01/05 06:00:43;;;;;;;20.58;3.80;;;;;;;1.90;81.81;100010.03;5072594;28;20511;-66
2022/01/05 06:03:10;;;;;;;17.60;3.67;;;;;;;1.87;80.83;100002.41;5059985;28;20036;-65
2022/01/05 06:05:36;;;;;;;14.50;3.15;;;;;;;1.75;80.11;100006.81;5074672;28;20142;-65
2022/01/05 06:08:03;;;;;;;14.35;3.30;;;;;;;1.73;80.55;99999.06;5091619;28;20560;-65
2022/01/05 06:10:31;;;;;;;22.45;3.50;;;;;;;1.83;80.63;100000.97;5093818;28;20066;-65
2022/01/05 06:12:57;;;;;;;17.08;3.30;;;;;;;1.82;80.12;100005.38;5076470;28;20424;-65
2022/01/05 06:15:24;;;;;;;30.80;4.45;;;;;;;1.87;80.91;100023.34;5057067;28;20500;-65
2022/01/05 06:17:50;;;;;;;14.70;3.75;;;;;;;1.86;80.51;100016.47;5114811;28;20039;-65
2022/01/05 06:20:22;;;;;;;22.20;3.22;;;;;;;1.77;82.55;100010.13;5097309;28;20057;-65
2022/01/05 06:22:49;;;;;;;13.35;3.80;;;;;;;1.89;80.64;100024.91;5114305;28;20119;-65
2022/01/05 06:25:16;;;;;;;22.42;4.13;;;;;;;1.98;82.08;100033.00;5078689;28;20051;-65
2022/01/05 06:27:42;;;;;;;18.95;3.58;;;;;;;1.93;81.00;100033.34;5114457;28;20054;-65
2022/01/05 06:30:10;;;;;;;19.33;4.15;;;;;;;2.01;80.56;100028.38;5114405;28;20040;-65
2022/01/05 06:32:46;;;;;;;17.70;3.70;;;;;;;1.95;80.13;100022.75;5114421;28;20043;-64
2022/01/05 06:35:14;;;;;;;21.83;3.30;;;;;;;1.93;80.94;100025.50;5112399;28;20047;-65
2022/01/05 06:37:41;;;;;;;17.08;3.55;;;;;;;1.83;82.16;100029.75;5114005;28;20051;-65
2022/01/05 06:40:08;;;;;;;24.50;3.83;;;;;;;1.88;81.02;100038.91;5094999;28;20404;-65
2022/01/05 06:42:35;;;;;;;21.40;3.45;;;;;;;1.90;81.53;100041.41;5113961;28;20042;-65
2022/01/05 06:45:03;;;;;;;21.90;3.92;;;;;;;1.82;81.59;100039.38;5095725;28;20522;-65
2022/01/05 06:47:29;;;;;;;15.75;3.03;;;;;;;2.00;80.70;100044.16;5096025;28;20089;-65
2022/01/05 06:49:56;;;;;;;20.15;3.28;;;;;;;2.02;80.80;100052.72;5113711;28;20042;-65
2022/01/05 06:52:26;;;;;;;11.80;2.97;;;;;;;2.01;79.63;100058.94;5096437;28;20043;-65
2022/01/05 06:54:52;;;;;;;24.13;4.15;;;;;;;1.97;80.44;100053.09;5095860;28;20046;-64
2022/01/05 06:57:19;;;;;;;22.63;3.95;;;;;;;1.99;79.66;100056.44;5095999;28;20036;-65
2022/01/05 06:59:46;;;;;;;16.08;3.40;;;;;;;1.94;80.24;100055.94;5113987;28;20049;-65
2022/01/05 07:02:12;;;;;;;22.92;3.22;;;;;;;1.96;80.42;100054.03;5091895;28;20052;-65
2022/01/05 07:04:39;;;;;;;23.88;3.67;;;;;;;2.11;80.05;100059.88;5091382;28;20097;-65
2022/01/05 07:07:06;;;;;;;17.08;3.15;;;;;;;2.14;80.47;100064.06;5073323;28;20040;-65
2022/01/05 07:09:33;;;;;;;21.65;3.08;;;;;;;2.20;79.64;100056.59;5090852;28;20067;-65
2022/01/05 07:12:00;;;;;;;8.65;2.22;;;;;;;2.13;79.73;100068.47;5092257;28;20044;-65
2022/01/05 07:14:26;;;;;;;24.02;5.68;;;;;;;2.09;80.22;100065.25;5091518;28;20492;-65
2022/01/05 07:16:53;;;;;;;19.50;3.88;;;;;;;2.17;80.63;100059.44;5075263;28;20052;-64
2022/01/05 07:19:20;;;;;;;17.33;3.67;;;;;;;2.17;80.22;100071.69;5091684;28;20051;-65
2022/01/05 07:21:48;;;;;;;15.35;2.83;;;;;;;2.09;80.53;100065.25;5092110;28;20036;-65
2022/01/05 07:24:17;;;;;;;17.80;3.30;;;;;;;2.10;80.27;100073.94;5091948;28;20039;-64
2022/01/05 07:26:45;;;;;;;22.98;3.83;;;;;;;2.04;80.97;100080.47;5075539;28;20044;-65
2022/01/05 07:29:13;;;;;;;26.95;4.00;;;;;;;2.14;80.68;100075.34;5091766;28;20051;-65
2022/01/05 07:31:40;;;;;;;18.70;3.13;;;;;;;2.24;80.14;100080.75;5091362;28;20420;-64
2022/01/05 07:34:07;;;;;;;20.92;3.67;;;;;;;2.13;80.41;100076.31;5075045;28;20105;-65
2022/01/05 07:36:34;;;;;;;22.58;3.70;;;;;;;2.16;81.01;100096.19;5091583;28;20044;-65
2022/01/05 07:39:04;;;;;;;19.83;4.10;;;;;;;2.04;79.84;100101.41;5092014;28;20400;-65
2022/01/05 07:41:32;;;;;;;15.15;3.75;;;;;;;2.07;80.95;100088.09;5074961;28;20528;-65
2022/01/05 07:43:59;;;;;;;23.05;4.55;;;;;;;2.14;80.79;100090.25;5091692;28;20043;-65
2022/01/05 07:46:26;;;;;;;19.73;3.53;;;;;;;2.21;80.42;100101.91;5091705;28;20819;-65
2022/01/05 07:48:53;;;;;;;19.98;3.67;;;;;;;2.14;80.66;100091.06;5074724;28;20048;-64
2022/01/05 07:51:20;;;;;;;20.63;3.67;;;;;;;2.10;81.14;100095.69;5074769;28;20122;-64
2022/01/05 07:53:47;;;;;;;15.57;3.05;;;;;;;2.15;81.06;100095.38;5075084;28;20051;-65
2022/01/05 07:56:14;;;;;;;18.95;3.40;;;;;;;2.10;80.82;100100.94;5074771;28;20040;-65
2022/01/05 07:58:40;;;;;;;15.05;3.40;;;;;;;2.19;81.38;100103.81;5091508;28;20044;-64
2022/01/05 08:01:07;;;;;;;21.35;4.20;;;;;;;2.22;81.20;100111.41;5096357;28;20076;-64
2022/01/05 08:03:34;;;;;;;26.77;4.38;;;;;;;2.28;81.01;100113.59;5093095;28;20044;-64
2022/01/05 08:06:17;;;;;;;10.38;2.42;;;;;;;2.20;80.62;100115.94;5083663;28;20065;-65
2022/01/05 08:08:45;;;;;;;13.55;3.47;;;;;;;2.14;80.68;100126.88;5095687;28;20089;-65
2022/01/05 08:11:12;;;;;;;20.77;4.07;;;;;;;2.26;81.39;100125.97;5095024;28;20062;-65
2022/01/05 08:13:39;;;;;;;14.15;3.30;;;;;;;2.20;80.79;100114.16;5113169;28;20078;-65
2022/01/05 08:16:06;;;;;;;19.58;4.00;;;;;;;2.28;81.20;100124.06;5094444;28;20043;-65
2022/01/05 08:18:33;;;;;;;20.92;4.22;;;;;;;2.40;80.87;100122.28;5094786;28;20127;-65
2022/01/05 08:21:00;;;;;;;18.08;3.60;;;;;;;2.41;80.68;100124.78;5085311;28;20416;-65
2022/01/05 08:23:29;;;;;;;20.23;4.00;;;;;;;2.52;80.46;100125.75;5094902;28;20070;-65
2022/01/05 08:25:56;;;;;;;20.40;4.15;;;;;;;2.51;80.11;100127.56;5112350;28;20039;-65
2022/01/05 08:28:23;;;;;;;24.40;4.15;;;;;;;2.60;80.53;100145.19;5094750;28;20047;-65
2022/01/05 08:30:50;;;;;;;20.52;3.85;;;;;;;2.56;80.79;100145.53;5092803;28;20053;-65
2022/01/05 08:33:17;;;;;;;17.60;3.88;;;;;;;2.53;80.50;100143.97;5112419;28;20032;-65
2022/01/05 08:35:45;;;;;;;21.20;4.40;;;;;;;2.49;80.15;100151.22;5094527;28;20052;-65
2022/01/05 08:38:12;;;;;;;20.58;4.68;;;;;;;2.48;81.22;100151.34;5112545;28;20043;-65
2022/01/05 08:40:40;;;;;;;20.63;4.07;;;;;;;2.40;81.14;100146.69;5112393;28;20058;-64
2022/01/05 08:43:07;;;;;;;17.00;3.38;;;;;;;2.46;81.12;100145.41;5094684;28;20036;-65
2022/01/05 08:45:34;;;;;;;27.30;4.40;;;;;;;2.45;81.12;100157.63;5094299;28;20092;-65
2022/01/05 08:48:02;;;;;;;17.60;4.53;;;;;;;2.62;80.98;100147.66;5078948;28;20483;-65
2022/01/05 08:50:31;;;;;;;30.95;5.38;;;;;;;2.58;80.77;100162.78;5116466;28;20062;-65
2022/01/05 08:52:58;;;;;;;24.73;4.38;;;;;;;2.55;80.75;100164.78;5116151;28;20484;-64
2022/01/05 08:55:29;;;;;;;17.13;3.70;;;;;;;2.60;80.27;100170.50;5065019;28;20046;-65
2022/01/05 08:57:57;;;;;;;12.57;3.60;;;;;;;2.57;80.64;100163.75;5116550;28;20039;-66
2022/01/05 09:00:24;;;;;;;20.67;3.75;;;;;;;2.54;80.83;100160.50;5097685;28;20051;-65
2022/01/05 09:02:51;;;;;;;26.08;4.78;;;;;;;2.55;80.95;100164.78;5077442;28;20473;-65
2022/01/05 09:05:21;;;;;;;24.00;4.30;;;;;;;2.58;80.63;100157.53;5075987;28;20122;-66
2022/01/05 09:07:48;;;;;;;16.35;3.15;;;;;;;2.59;80.97;100153.97;5094323;28;20043;-65
2022/01/05 09:10:15;;;;;;;11.95;3.50;;;;;;;2.67;80.75;100150.75;5086215;28;20101;-65
2022/01/05 09:12:42;;;;;;;27.33;4.38;;;;;;;2.78;80.42;100150.75;5035100;28;20041;-66
2022/01/05 09:15:09;;;;;;;24.48;5.38;;;;;;;2.76;81.40;100144.81;5057387;28;20127;-66
2022/01/05 09:17:35;;;;;;;24.73;4.70;;;;;;;2.91;79.68;100153.31;5057314;28;20504;-66
2022/01/05 09:20:03;;;;;;;20.77;4.38;;;;;;;2.86;79.93;100148.41;5075781;28;20040;-63
2022/01/05 09:22:30;;;;;;;16.75;3.85;;;;;;;2.86;79.57;100139.72;5039854;28;20493;-65
2022/01/05 09:24:59;;;;;;;24.42;3.88;;;;;;;2.97;79.59;100160.66;5057280;28;20045;-65
2022/01/05 09:27:26;;;;;;;21.23;4.95;;;;;;;2.93;79.71;100161.00;5084812;28;20488;-65
2022/01/05 09:29:53;;;;;;;24.75;4.47;;;;;;;2.87;80.66;100134.38;5082300;28;20055;-66
2022/01/05 09:32:19;;;;;;;17.85;4.78;;;;;;;2.92;80.22;100160.19;5082631;28;20123;-66
2022/01/05 09:34:46;;;;;;;15.48;3.72;;;;;;;2.77;80.02;100179.72;5067822;28;20501;-67
2022/01/05 09:37:23;;;;;;;18.02;4.30;;;;;;;2.73;81.18;100160.78;5080634;28;20062;-66
2022/01/05 09:42:38;;;;;;;14.60;4.22;;;;;;;2.91;80.06;100179.50;5088227;28;20040;-65
2022/01/05 09:45:18;;;;;;;20.38;5.47;;;;;;;2.86;80.34;100186.88;5076845;28;20035;-65
2022/01/05 09:48:09;;;;;;;24.05;6.22;;;;;;;2.90;81.01;100182.22;5090567;28;20074;-64
2022/01/05 09:50:41;;;;;;;17.45;4.00;;;;;;;2.95;79.89;100183.53;5093817;28;20550;-64
2022/01/05 09:53:09;;;;;;;28.90;6.60;;;;;;;3.07;80.42;100176.50;5064399;28;20086;-64
2022/01/05 09:55:36;;;;;;;14.05;4.25;;;;;;;3.08;79.87;100197.34;5085203;28;20515;-65
2022/01/05 09:58:02;;;;;;;20.23;5.43;;;;;;;3.05;79.62;100181.03;5086317;28;20572;-64
2022/01/05 10:00:29;;;;;;;15.90;4.75;;;;;;;3.20;79.50;100186.88;5075726;28;20052;-64
2022/01/05 10:02:56;;;;;;;22.73;5.60;;;;;;;3.17;79.80;100177.47;5068004;28;20059;-64
2022/01/05 10:05:24;;;;;;;21.30;5.10;;;;;;;3.30;79.36;100176.50;5086233;28;20051;-64
2022/01/05 10:07:51;;;;;;;28.90;5.53;;;;;;;3.39;79.14;100181.84;5072909;28;20400;-64
2022/01/05 10:10:18;;;;;;;20.33;5.03;;;;;;;3.31;79.30;100178.16;5088381;28;20044;-64
2022/01/05 10:12:48;;;;;;;15.30;4.80;;;;;;;3.38;79.56;100179.34;5093309;28;20496;-65
2022/01/05 10:15:16;;;;;;;21.27;5.43;;;;;;;3.41;79.01;100171.25;5085956;28;20047;-65
2022/01/05 10:17:43;;;;;;;23.42;6.35;;;;;;;3.45;78.94;100188.38;5075052;28;20044;-66
2022/01/05 10:20:13;;;;;;;22.30;6.10;;;;;;;3.43;79.42;100187.69;5096153;28;20052;-65
2022/01/05 10:22:42;;;;;;;20.65;5.38;;;;;;;3.38;79.54;100195.91;5073860;28;20040;-65
2022/01/05 10:25:17;;;;;;;16.65;5.95;;;;;;;3.29;79.29;100186.13;5072592;28;20040;-65
2022/01/05 10:27:56;;;;;;;26.35;5.55;;;;;;;3.14;79.32;100196.03;5091820;28;20067;-65
2022/01/05 10:30:35;;;;;;;15.25;4.95;;;;;;;3.23;79.76;100189.25;5090820;28;20058;-66
2022/01/05 10:33:02;;;;;;;17.83;4.80;;;;;;;3.28;79.87;100189.72;5072131;28;20036;-65
2022/01/05 10:35:29;;;;;;;15.75;4.72;;;;;;;3.22;79.38;100193.66;5087199;28;20036;-65
2022/01/05 10:37:59;;;;;;;21.45;6.68;;;;;;;3.31;79.37;100193.88;5077888;28;20047;-65
2022/01/05 10:40:27;;;;;;;29.95;6.10;;;;;;;3.41;78.84;100195.66;5075932;28;20074;-66
2022/01/05 10:42:56;;;;;;;20.73;5.07;;;;;;;3.42;79.53;100172.88;5087729;28;20321;-66
2022/01/05 10:45:37;;;;;;;19.33;4.22;;;;;;;3.45;79.21;100185.78;5085600;28;20040;-65
2022/01/05 10:48:08;;;;;;;17.98;3.50;;;;;;;3.45;78.93;100189.22;5069709;28;20060;-66
2022/01/05 10:50:36;;;;;;;14.02;3.85;;;;;;;3.51;78.91;100208.03;5056202;28;20131;-66
2022/01/05 10:53:04;;;;;;;23.63;5.45;;;;;;;3.42;78.92;100168.50;5072157;28;20051;-65
2022/01/05 10:55:32;;;;;;;19.00;5.72;;;;;;;3.55;79.17;100197.22;5055726;28;20123;-65
2022/01/05 10:58:10;;;;;;;25.38;6.22;;;;;;;3.53;80.29;100201.75;5072904;28;20036;-66
2022/01/05 11:06:19;;;;;;;16.23;4.45;;;;;;;3.45;82.30;100197.09;5108964;27;20395;-66
2022/01/05 11:08:59;;;;;;;25.80;6.60;;;;;;;3.44;81.99;100184.94;5104510;28;20574;-65
2022/01/05 11:11:42;;;;;;;15.05;4.75;;;;;;;3.39;82.46;100191.50;5127076;28;20043;-65
2022/01/05 11:14:10;;;;;;;25.05;5.28;;;;;;;3.34;83.67;100215.47;5108993;28;20032;-66
2022/01/05 11:16:39;;;;;;;18.60;5.80;;;;;;;3.37;84.07;100196.88;5124847;28;20089;-65
2022/01/05 11:19:27;;;;;;;20.58;4.20;;;;;;;3.31;83.29;100204.38;5108888;28;20393;-65
2022/01/05 11:22:14;;;;;;;17.58;6.15;;;;;;;3.23;83.63;100197.94;5109161;28;20039;-65
2022/01/05 11:24:45;;;;;;;18.27;4.45;;;;;;;3.26;83.48;100194.25;5108663;28;20123;-65
2022/01/05 11:27:18;;;;;;;31.70;7.10;;;;;;;3.35;83.94;100183.06;5109347;28;20054;-65
2022/01/05 11:29:46;;;;;;;19.65;6.50;;;;;;;3.46;84.16;100180.41;5124894;27;20123;-65
2022/01/05 11:32:15;;;;;;;25.15;6.47;;;;;;;3.53;83.29;100185.16;5108113;28;20044;-65
2022/01/05 11:34:43;;;;;;;25.05;5.85;;;;;;;3.60;82.62;100202.06;5108024;28;20400;-65
2022/01/05 11:37:10;;;;;;;21.05;5.43;;;;;;;3.67;83.27;100192.75;5109630;28;20039;-65
2022/01/05 11:39:43;;;;;;;27.95;6.07;;;;;;;3.92;82.13;100203.91;5090048;28;20055;-66
2022/01/05 11:42:13;;;;;;;16.42;4.45;;;;;;;4.81;77.97;100188.66;5109075;28;20115;-66
2022/01/05 11:44:51;;;;;;;26.48;5.78;;;;;;;4.88;77.33;100195.06;5092496;28;20105;-66